Saint Anthony, Idaho
Current Conditions -  °F | °C
As of 8:53 AM on Friday 21 Nov 2014 (Local Time) from KRXE Reporting Station
Haze Haze  
Wind Chill: 24°   Ceiling: 4400
Heat Index: 24°   Visibility: 4mi
Dew Point: 23°   Wind: 0mph
Humidity: 96%   Direction: NA
Pressure: 30.03"   Gusts: NA
Location:  43.97°N, 111.68°W
Report Text: KRXE 211553Z AUTO 00000KT 4SM BR OVC044 M04/M05 A3003 RMK AO2 SLP199 T10441050
Loading
Personal Weather Stations






























Interactive Weather Map New forecast layout! Learn more

10-Day Weather Forecast

Advertisements
Track Severe Weather on mobile